sensor_id;sensor_type;location;lat;lon;timestamp;pressure;altitude;pressure_sealevel;temperature;humidity
55113;BME280;41006;50.920;3.456;2023-08-24T00:00:07;75567.19;;;-147.36;83.92
55113;BME280;41006;50.920;3.456;2023-08-24T00:00:39;75575.25;;;-147.36;84.09
55113;BME280;41006;50.920;3.456;2023-08-24T00:01:12;75573.22;;;-147.36;84.26
55113;BME280;41006;50.920;3.456;2023-08-24T00:01:46;75569.19;;;-147.36;84.38
55113;BME280;41006;50.920;3.456;2023-08-24T00:02:16;75565.16;;;-147.36;84.14
55113;BME280;41006;50.920;3.456;2023-08-24T00:02:47;75555.06;;;-147.36;83.92
55113;BME280;41006;50.920;3.456;2023-08-24T00:03:19;75551.00;;;-147.36;83.47
55113;BME280;41006;50.920;3.456;2023-08-24T00:03:52;75557.06;;;-147.36;83.61
55113;BME280;41006;50.920;3.456;2023-08-24T00:04:25;75534.84;;;-147.36;83.40
55113;BME280;41006;50.920;3.456;2023-08-24T00:04:56;75534.84;;;-147.36;83.35
55113;BME280;41006;50.920;3.456;2023-08-24T00:05:29;75536.88;;;-147.36;83.43
55113;BME280;41006;50.920;3.456;2023-08-24T00:05:59;75538.91;;;-147.36;83.33
55113;BME280;41006;50.920;3.456;2023-08-24T00:06:32;75534.84;;;-147.36;83.28
55113;BME280;41006;50.920;3.456;2023-08-24T00:07:04;75534.84;;;-147.36;83.43
55113;BME280;41006;50.920;3.456;2023-08-24T00:07:35;75532.84;;;-147.36;83.49
55113;BME280;41006;50.920;3.456;2023-08-24T00:08:08;75522.75;;;-147.36;83.27
55113;BME280;41006;50.920;3.456;2023-08-24T00:08:38;75530.81;;;-147.36;83.35
55113;BME280;41006;50.920;3.456;2023-08-24T00:09:11;75530.81;;;-147.36;83.42
55113;BME280;41006;50.920;3.456;2023-08-24T00:09:42;75538.91;;;-147.36;83.78
55113;BME280;41006;50.920;3.456;2023-08-24T00:10:16;75538.91;;;-147.36;83.91
55113;BME280;41006;50.920;3.456;2023-08-24T00:10:48;75546.97;;;-147.36;83.89
55113;BME280;41006;50.920;3.456;2023-08-24T00:11:21;75542.94;;;-147.36;83.90
55113;BME280;41006;50.920;3.456;2023-08-24T00:11:52;75549.00;;;-147.36;84.38
55113;BME280;41006;50.920;3.456;2023-08-24T00:12:27;75538.91;;;-147.36;84.17
55113;BME280;41006;50.920;3.456;2023-08-24T00:13:03;75546.97;;;-147.36;84.11
55113;BME280;41006;50.920;3.456;2023-08-24T00:13:36;75546.97;;;-147.36;84.15
55113;BME280;41006;50.920;3.456;2023-08-24T00:14:06;75546.97;;;-147.36;83.52
55113;BME280;41006;50.920;3.456;2023-08-24T00:14:36;75534.84;;;-147.36;83.42
55113;BME280;41006;50.920;3.456;2023-08-24T00:15:08;75542.94;;;-147.36;83.54
55113;BME280;41006;50.920;3.456;2023-08-24T00:15:43;75542.94;;;-147.36;83.62
55113;BME280;41006;50.920;3.456;2023-08-24T00:16:16;75553.03;;;-147.36;83.93
55113;BME280;41006;50.920;3.456;2023-08-24T00:16:46;75559.09;;;-147.36;84.15
55113;BME280;41006;50.920;3.456;2023-08-24T00:17:19;75553.03;;;-147.36;84.24
55113;BME280;41006;50.920;3.456;2023-08-24T00:17:58;75559.09;;;-147.36;84.31
55113;BME280;41006;50.920;3.456;2023-08-24T00:18:31;75557.06;;;-147.36;84.38
55113;BME280;41006;50.920;3.456;2023-08-24T00:19:04;75549.00;;;-147.36;84.09
55113;BME280;41006;50.920;3.456;2023-08-24T00:19:37;75546.97;;;-147.36;84.24
55113;BME280;41006;50.920;3.456;2023-08-24T00:20:10;75549.00;;;-147.36;84.08
55113;BME280;41006;50.920;3.456;2023-08-24T00:20:40;75557.06;;;-147.36;84.19
55113;BME280;41006;50.920;3.456;2023-08-24T00:21:16;75557.06;;;-147.36;84.19
55113;BME280;41006;50.920;3.456;2023-08-24T00:21:57;75553.03;;;-147.36;84.24
55113;BME280;41006;50.920;3.456;2023-08-24T00:22:30;75559.09;;;-147.36;84.26
55113;BME280;41006;50.920;3.456;2023-08-24T00:23:03;75555.06;;;-147.36;83.75
55113;BME280;41006;50.920;3.456;2023-08-24T00:23:38;75538.91;;;-147.36;83.53
55113;BME280;41006;50.920;3.456;2023-08-24T00:24:08;75542.94;;;-147.36;83.50
55113;BME280;41006;50.920;3.456;2023-08-24T00:24:41;75553.03;;;-147.36;83.28
55113;BME280;41006;50.920;3.456;2023-08-24T00:25:12;75555.06;;;-147.36;83.58
55113;BME280;41006;50.920;3.456;2023-08-24T00:25:42;75557.06;;;-147.36;83.85
55113;BME280;41006;50.920;3.456;2023-08-24T00:26:16;75559.09;;;-147.36;83.54
55113;BME280;41006;50.920;3.456;2023-08-24T00:26:49;75563.13;;;-147.36;83.57
55113;BME280;41006;50.920;3.456;2023-08-24T00:27:22;75555.06;;;-147.36;83.58
55113;BME280;41006;50.920;3.456;2023-08-24T00:27:55;75563.13;;;-147.36;83.84
55113;BME280;41006;50.920;3.456;2023-08-24T00:28:28;75567.19;;;-147.36;83.98
55113;BME280;41006;50.920;3.456;2023-08-24T00:29:01;75561.13;;;-147.36;84.11
55113;BME280;41006;50.920;3.456;2023-08-24T00:29:34;75567.19;;;-147.36;84.02
55113;BME280;41006;50.920;3.456;2023-08-24T00:30:06;75567.19;;;-147.36;84.14
55113;BME280;41006;50.920;3.456;2023-08-24T00:30:37;75577.28;;;-147.36;84.14
55113;BME280;41006;50.920;3.456;2023-08-24T00:31:12;75575.25;;;-147.36;84.26
55113;BME280;41006;50.920;3.456;2023-08-24T00:31:42;75573.22;;;-147.36;84.26
55113;BME280;41006;50.920;3.456;2023-08-24T00:32:13;75579.28;;;-147.36;84.31
55113;BME280;41006;50.920;3.456;2023-08-24T00:32:43;75583.34;;;-147.36;84.57
55113;BME280;41006;50.920;3.456;2023-08-24T00:33:16;75581.31;;;-147.36;84.66
55113;BME280;41006;50.920;3.456;2023-08-24T00:33:46;75563.13;;;-147.36;84.49
55113;BME280;41006;50.920;3.456;2023-08-24T00:34:20;75553.03;;;-147.36;83.92
55113;BME280;41006;50.920;3.456;2023-08-24T00:34:51;75551.00;;;-147.36;83.93
55113;BME280;41006;50.920;3.456;2023-08-24T00:35:23;75571.22;;;-147.36;84.34
55113;BME280;41006;50.920;3.456;2023-08-24T00:35:56;75571.22;;;-147.36;84.63
55113;BME280;41006;50.920;3.456;2023-08-24T00:36:31;75563.13;;;-147.36;84.14
55113;BME280;41006;50.920;3.456;2023-08-24T00:37:06;75563.13;;;-147.36;84.31
55113;BME280;41006;50.920;3.456;2023-08-24T00:37:37;75565.16;;;-147.36;84.26
55113;BME280;41006;50.920;3.456;2023-08-24T00:38:10;75567.19;;;-147.36;84.45
55113;BME280;41006;50.920;3.456;2023-08-24T00:38:42;75581.31;;;-147.36;84.56
55113;BME280;41006;50.920;3.456;2023-08-24T00:39:13;75569.19;;;-147.36;84.37
55113;BME280;41006;50.920;3.456;2023-08-24T00:39:43;75573.22;;;-147.36;84.27
55113;BME280;41006;50.920;3.456;2023-08-24T00:40:14;75571.22;;;-147.36;84.47
55113;BME280;41006;50.920;3.456;2023-08-24T00:40:44;75575.25;;;-147.36;84.52
55113;BME280;41006;50.920;3.456;2023-08-24T00:41:17;75579.28;;;-147.36;84.67
55113;BME280;41006;50.920;3.456;2023-08-24T00:41:51;75571.22;;;-147.36;84.62
55113;BME280;41006;50.920;3.456;2023-08-24T00:42:26;75565.16;;;-147.36;84.48
55113;BME280;41006;50.920;3.456;2023-08-24T00:42:56;75571.22;;;-147.36;84.12
55113;BME280;41006;50.920;3.456;2023-08-24T00:43:29;75571.22;;;-147.36;84.62
55113;BME280;41006;50.920;3.456;2023-08-24T00:44:02;75571.22;;;-147.36;84.52
55113;BME280;41006;50.920;3.456;2023-08-24T00:44:32;75573.22;;;-147.36;84.33
55113;BME280;41006;50.920;3.456;2023-08-24T00:45:05;75579.28;;;-147.36;84.72
55113;BME280;41006;50.920;3.456;2023-08-24T00:45:36;75569.19;;;-147.36;84.74
55113;BME280;41006;50.920;3.456;2023-08-24T00:46:06;75551.00;;;-147.36;84.22
55113;BME280;41006;50.920;3.456;2023-08-24T00:46:37;75563.13;;;-147.36;84.21
55113;BME280;41006;50.920;3.456;2023-08-24T00:47:08;75557.06;;;-147.36;84.21
55113;BME280;41006;50.920;3.456;2023-08-24T00:47:46;75549.00;;;-147.36;84.02
55113;BME280;41006;50.920;3.456;2023-08-24T00:48:20;75561.13;;;-147.36;84.11
55113;BME280;41006;50.920;3.456;2023-08-24T00:48:58;75569.19;;;-147.36;84.62
55113;BME280;41006;50.920;3.456;2023-08-24T00:49:30;75575.25;;;-147.36;84.60
55113;BME280;41006;50.920;3.456;2023-08-24T00:50:01;75569.19;;;-147.36;84.48
55113;BME280;41006;50.920;3.456;2023-08-24T00:50:34;75567.19;;;-147.36;84.74
55113;BME280;41006;50.920;3.456;2023-08-24T00:51:04;75567.19;;;-147.36;84.66
55113;BME280;41006;50.920;3.456;2023-08-24T00:51:38;75565.16;;;-147.36;84.63
55113;BME280;41006;50.920;3.456;2023-08-24T00:52:10;75557.06;;;-147.36;84.20
55113;BME280;41006;50.920;3.456;2023-08-24T00:52:41;75546.97;;;-147.36;84.17
55113;BME280;41006;50.920;3.456;2023-08-24T00:53:14;75559.09;;;-147.36;84.21
55113;BME280;41006;50.920;3.456;2023-08-24T00:53:45;75555.06;;;-147.36;84.41
55113;BME280;41006;50.920;3.456;2023-08-24T00:54:18;75549.00;;;-147.36;84.46
55113;BME280;41006;50.920;3.456;2023-08-24T00:54:51;75544.97;;;-147.36;84.32
55113;BME280;41006;50.920;3.456;2023-08-24T00:55:24;75544.97;;;-147.36;84.17
55113;BME280;41006;50.920;3.456;2023-08-24T00:55:55;75549.00;;;-147.36;84.04
55113;BME280;41006;50.920;3.456;2023-08-24T00:56:32;75561.13;;;-147.36;84.25
55113;BME280;41006;50.920;3.456;2023-08-24T00:57:03;75559.09;;;-147.36;84.65
55113;BME280;41006;50.920;3.456;2023-08-24T00:57:35;75563.13;;;-147.36;84.68
55113;BME280;41006;50.920;3.456;2023-08-24T00:58:11;75551.00;;;-147.36;84.63
55113;BME280;41006;50.920;3.456;2023-08-24T00:58:43;75549.00;;;-147.36;84.56
55113;BME280;41006;50.920;3.456;2023-08-24T00:59:14;75551.00;;;-147.36;84.41
55113;BME280;41006;50.920;3.456;2023-08-24T00:59:45;75546.97;;;-147.36;84.30
55113;BME280;41006;50.920;3.456;2023-08-24T01:00:16;75542.94;;;-147.36;84.29
55113;BME280;41006;50.920;3.456;2023-08-24T01:00:51;75553.03;;;-147.36;84.31
55113;BME280;41006;50.920;3.456;2023-08-24T01:01:24;75546.97;;;-147.36;84.42
55113;BME280;41006;50.920;3.456;2023-08-24T01:02:01;75559.09;;;-147.36;84.61
55113;BME280;41006;50.920;3.456;2023-08-24T01:02:32;75549.00;;;-147.36;85.19
55113;BME280;41006;50.920;3.456;2023-08-24T01:03:05;75542.94;;;-147.36;85.23
55113;BME280;41006;50.920;3.456;2023-08-24T01:03:35;75532.84;;;-147.36;85.29
55113;BME280;41006;50.920;3.456;2023-08-24T01:04:08;75522.75;;;-147.36;85.72
55113;BME280;41006;50.920;3.456;2023-08-24T01:04:41;75538.91;;;-147.36;85.20
55113;BME280;41006;50.920;3.456;2023-08-24T01:05:15;75542.94;;;-147.36;86.03
55113;BME280;41006;50.920;3.456;2023-08-24T01:05:47;75540.91;;;-147.36;87.54
55113;BME280;41006;50.920;3.456;2023-08-24T01:06:23;75553.03;;;-147.36;86.84
55113;BME280;41006;50.920;3.456;2023-08-24T01:06:55;75575.25;;;-147.36;87.34
55113;BME280;41006;50.920;3.456;2023-08-24T01:07:26;75579.28;;;-147.36;88.10
55113;BME280;41006;50.920;3.456;2023-08-24T01:07:56;75585.34;;;-147.36;88.79
55113;BME280;41006;50.920;3.456;2023-08-24T01:08:27;75579.28;;;-147.36;89.49
55113;BME280;41006;50.920;3.456;2023-08-24T01:08:57;75577.28;;;-147.36;89.19
55113;BME280;41006;50.920;3.456;2023-08-24T01:09:30;75583.34;;;-147.36;89.26
55113;BME280;41006;50.920;3.456;2023-08-24T01:10:03;75587.38;;;-147.36;89.34
55113;BME280;41006;50.920;3.456;2023-08-24T01:12:33;75587.38;;;-147.36;90.59
55113;BME280;41006;50.920;3.456;2023-08-24T01:13:11;75589.41;;;-147.36;91.04
55113;BME280;41006;50.920;3.456;2023-08-24T01:15:57;75575.25;;;-147.36;94.09
55113;BME280;41006;50.920;3.456;2023-08-24T01:16:33;75571.22;;;-147.36;94.04
55113;BME280;41006;50.920;3.456;2023-08-24T01:17:14;75569.19;;;-147.36;94.60
55113;BME280;41006;50.920;3.456;2023-08-24T01:17:47;75559.09;;;-147.36;95.10
55113;BME280;41006;50.920;3.456;2023-08-24T01:18:25;75559.09;;;-147.36;94.76
55113;BME280;41006;50.920;3.456;2023-08-24T01:19:00;75559.09;;;-147.36;94.86
55113;BME280;41006;50.920;3.456;2023-08-24T01:19:43;75561.13;;;-147.36;95.18
55113;BME280;41006;50.920;3.456;2023-08-24T01:20:15;75569.19;;;-147.36;95.11
55113;BME280;41006;50.920;3.456;2023-08-24T01:20:49;75569.19;;;-147.36;95.29
55113;BME280;41006;50.920;3.456;2023-08-24T01:21:19;75569.19;;;-147.36;95.64
55113;BME280;41006;50.920;3.456;2023-08-24T01:21:51;75551.00;;;-147.36;96.08
55113;BME280;41006;50.920;3.456;2023-08-24T01:24:14;75542.94;;;-147.36;96.54
55113;BME280;41006;50.920;3.456;2023-08-24T01:25:45;75534.84;;;-147.36;97.07
55113;BME280;41006;50.920;3.456;2023-08-24T01:26:21;75534.84;;;-147.36;96.74
55113;BME280;41006;50.920;3.456;2023-08-24T01:26:55;75530.81;;;-147.36;96.81
55113;BME280;41006;50.920;3.456;2023-08-24T01:27:28;75532.84;;;-147.36;96.92
55113;BME280;41006;50.920;3.456;2023-08-24T01:28:01;75538.91;;;-147.36;97.20
55113;BME280;41006;50.920;3.456;2023-08-24T01:28:32;75542.94;;;-147.36;97.38
55113;BME280;41006;50.920;3.456;2023-08-24T01:29:04;75569.19;;;-147.36;97.22
55113;BME280;41006;50.920;3.456;2023-08-24T01:29:37;75587.38;;;-147.36;97.89
55113;BME280;41006;50.920;3.456;2023-08-24T01:30:10;75599.50;;;-147.36;98.38
55113;BME280;41006;50.920;3.456;2023-08-24T01:30:44;75585.34;;;-147.36;99.71
55113;BME280;41006;50.920;3.456;2023-08-24T01:31:15;75591.41;;;-147.36;99.38
55113;BME280;41006;50.920;3.456;2023-08-24T01:31:48;75599.50;;;-147.36;99.43
55113;BME280;41006;50.920;3.456;2023-08-24T01:32:19;75587.38;;;-147.36;100.00
55113;BME280;41006;50.920;3.456;2023-08-24T01:32:54;75579.28;;;-147.36;100.00
55113;BME280;41006;50.920;3.456;2023-08-24T01:33:30;75585.34;;;-147.36;99.50
55113;BME280;41006;50.920;3.456;2023-08-24T01:34:03;75581.31;;;-147.36;99.66
55113;BME280;41006;50.920;3.456;2023-08-24T01:34:36;75583.34;;;-147.36;99.92
55113;BME280;41006;50.920;3.456;2023-08-24T01:35:08;75579.28;;;-147.36;99.84
55113;BME280;41006;50.920;3.456;2023-08-24T01:35:44;75593.44;;;-147.36;100.00
55113;BME280;41006;50.920;3.456;2023-08-24T01:36:15;75599.50;;;-147.36;100.00
55113;BME280;41006;50.920;3.456;2023-08-24T01:36:49;75603.53;;;-147.36;100.00
55113;BME280;41006;50.920;3.456;2023-08-24T01:37:22;75595.47;;;-147.36;100.00
55113;BME280;41006;50.920;3.456;2023-08-24T01:37:55;75587.38;;;-147.36;100.00
55113;BME280;41006;50.920;3.456;2023-08-24T01:38:34;75591.41;;;-147.36;100.00
55113;BME280;41006;50.920;3.456;2023-08-24T01:39:19;75595.47;;;-147.36;100.00
55113;BME280;41006;50.920;3.456;2023-08-24T01:40:02;75609.59;;;-147.36;100.00
55113;BME280;41006;50.920;3.456;2023-08-24T01:41:37;75595.47;;;-147.36;100.00
55113;BME280;41006;50.920;3.456;2023-08-24T01:42:20;75587.38;;;-147.36;100.00
55113;BME280;41006;50.920;3.456;2023-08-24T01:42:54;75571.22;;;-147.36;100.00
55113;BME280;41006;50.920;3.456;2023-08-24T01:43:29;75575.25;;;-147.36;100.00
55113;BME280;41006;50.920;3.456;2023-08-24T01:44:06;75579.28;;;-147.36;100.00
55113;BME280;41006;50.920;3.456;2023-08-24T01:44:39;75575.25;;;-147.36;100.00
55113;BME280;41006;50.920;3.456;2023-08-24T01:45:12;75583.34;;;-147.36;100.00
55113;BME280;41006;50.920;3.456;2023-08-24T01:45:43;75579.28;;;-147.36;100.00
55113;BME280;41006;50.920;3.456;2023-08-24T01:46:16;75575.25;;;-147.36;100.00
55113;BME280;41006;50.920;3.456;2023-08-24T01:46:51;75575.25;;;-147.36;100.00
55113;BME280;41006;50.920;3.456;2023-08-24T01:47:23;75581.31;;;-147.36;100.00
55113;BME280;41006;50.920;3.456;2023-08-24T01:47:54;75577.28;;;-147.36;100.00
55113;BME280;41006;50.920;3.456;2023-08-24T01:48:29;75575.25;;;-147.36;100.00
55113;BME280;41006;50.920;3.456;2023-08-24T01:48:59;75565.16;;;-147.36;100.00
55113;BME280;41006;50.920;3.456;2023-08-24T01:49:31;75567.19;;;-147.36;100.00
55113;BME280;41006;50.920;3.456;2023-08-24T01:50:04;75575.25;;;-147.36;100.00
55113;BME280;41006;50.920;3.456;2023-08-24T01:50:37;75587.38;;;-147.36;100.00
55113;BME280;41006;50.920;3.456;2023-08-24T01:51:08;75579.28;;;-147.36;100.00
55113;BME280;41006;50.920;3.456;2023-08-24T01:51:43;75585.34;;;-147.36;100.00
55113;BME280;41006;50.920;3.456;2023-08-24T01:52:15;75579.28;;;-147.36;100.00
55113;BME280;41006;50.920;3.456;2023-08-24T01:52:45;75569.19;;;-147.36;100.00
55113;BME280;41006;50.920;3.456;2023-08-24T01:53:16;75569.19;;;-147.36;100.00
55113;BME280;41006;50.920;3.456;2023-08-24T01:53:47;75557.06;;;-147.36;100.00
55113;BME280;41006;50.920;3.456;2023-08-24T01:54:22;75561.13;;;-147.36;100.00
55113;BME280;41006;50.920;3.456;2023-08-24T01:54:55;75551.00;;;-147.36;100.00
55113;BME280;41006;50.920;3.456;2023-08-24T01:55:25;75546.97;;;-147.36;100.00
55113;BME280;41006;50.920;3.456;2023-08-24T01:55:58;75563.13;;;-147.36;100.00
55113;BME280;41006;50.920;3.456;2023-08-24T01:56:30;75563.13;;;-147.36;100.00
55113;BME280;41006;50.920;3.456;2023-08-24T01:57:10;75573.22;;;-147.36;100.00
55113;BME280;41006;50.920;3.456;2023-08-24T01:57:40;75567.19;;;-147.36;100.00
55113;BME280;41006;50.920;3.456;2023-08-24T01:58:16;75587.38;;;-147.36;100.00
55113;BME280;41006;50.920;3.456;2023-08-24T01:58:48;75583.34;;;-147.36;100.00
55113;BME280;41006;50.920;3.456;2023-08-24T01:59:21;75585.34;;;-147.36;100.00
55113;BME280;41006;50.920;3.456;2023-08-24T01:59:54;75591.41;;;-147.36;100.00
55113;BME280;41006;50.920;3.456;2023-08-24T02:00:24;75577.28;;;-147.36;100.00
55113;BME280;41006;50.920;3.456;2023-08-24T02:00:54;75571.22;;;-147.36;100.00
55113;BME280;41006;50.920;3.456;2023-08-24T02:01:32;75567.19;;;-147.36;100.00
55113;BME280;41006;50.920;3.456;2023-08-24T02:02:02;75563.13;;;-147.36;100.00
55113;BME280;41006;50.920;3.456;2023-08-24T02:02:35;75549.00;;;-147.36;100.00
55113;BME280;41006;50.920;3.456;2023-08-24T02:03:08;75563.13;;;-147.36;100.00
55113;BME280;41006;50.920;3.456;2023-08-24T02:03:38;75567.19;;;-147.36;100.00
55113;BME280;41006;50.920;3.456;2023-08-24T02:04:09;75559.09;;;-147.36;100.00
55113;BME280;41006;50.920;3.456;2023-08-24T02:04:42;75542.94;;;-147.36;100.00
55113;BME280;41006;50.920;3.456;2023-08-24T02:05:15;75553.03;;;-147.36;99.99
55113;BME280;41006;50.920;3.456;2023-08-24T02:05:46;75561.13;;;-147.36;100.00
55113;BME280;41006;50.920;3.456;2023-08-24T02:06:16;75549.00;;;-147.36;99.59
55113;BME280;41006;50.920;3.456;2023-08-24T02:06:46;75540.91;;;-147.36;99.31
55113;BME280;41006;50.920;3.456;2023-08-24T02:07:22;75538.91;;;-147.36;99.41
55113;BME280;41006;50.920;3.456;2023-08-24T02:07:57;75536.88;;;-147.36;99.34
55113;BME280;41006;50.920;3.456;2023-08-24T02:08:29;75538.91;;;-147.36;99.42
55113;BME280;41006;50.920;3.456;2023-08-24T02:09:00;75557.06;;;-147.36;99.11
55113;BME280;41006;50.920;3.456;2023-08-24T02:09:37;75557.06;;;-147.36;99.68
55113;BME280;41006;50.920;3.456;2023-08-24T02:10:13;75553.03;;;-147.36;100.00
55113;BME280;41006;50.920;3.456;2023-08-24T02:10:44;75546.97;;;-147.36;100.00
55113;BME280;41006;50.920;3.456;2023-08-24T02:11:15;75553.03;;;-147.36;100.00
55113;BME280;41006;50.920;3.456;2023-08-24T02:11:47;75551.00;;;-147.36;100.00
55113;BME280;41006;50.920;3.456;2023-08-24T02:12:18;75546.97;;;-147.36;100.00
55113;BME280;41006;50.920;3.456;2023-08-24T02:12:48;75549.00;;;-147.36;100.00
55113;BME280;41006;50.920;3.456;2023-08-24T02:13:19;75540.91;;;-147.36;100.00
55113;BME280;41006;50.920;3.456;2023-08-24T02:13:49;75559.09;;;-147.36;100.00
55113;BME280;41006;50.920;3.456;2023-08-24T02:14:22;75571.22;;;-147.36;100.00
55113;BME280;41006;50.920;3.456;2023-08-24T02:14:53;75569.19;;;-147.36;100.00
55113;BME280;41006;50.920;3.456;2023-08-24T02:15:25;75575.25;;;-147.36;100.00
55113;BME280;41006;50.920;3.456;2023-08-24T02:16:08;75567.19;;;-147.36;100.00
55113;BME280;41006;50.920;3.456;2023-08-24T02:16:39;75575.25;;;-147.36;100.00
55113;BME280;41006;50.920;3.456;2023-08-24T02:17:12;75567.19;;;-147.36;100.00
55113;BME280;41006;50.920;3.456;2023-08-24T02:17:44;75567.19;;;-147.36;100.00
55113;BME280;41006;50.920;3.456;2023-08-24T02:18:19;75575.25;;;-147.36;100.00
55113;BME280;41006;50.920;3.456;2023-08-24T02:18:50;75579.28;;;-147.36;100.00
55113;BME280;41006;50.920;3.456;2023-08-24T02:19:22;75577.28;;;-147.36;100.00
55113;BME280;41006;50.920;3.456;2023-08-24T02:19:55;75583.34;;;-147.36;100.00
55113;BME280;41006;50.920;3.456;2023-08-24T02:20:28;75587.38;;;-147.36;100.00
55113;BME280;41006;50.920;3.456;2023-08-24T02:20:58;75589.41;;;-147.36;100.00
55113;BME280;41006;50.920;3.456;2023-08-24T02:21:31;75585.34;;;-147.36;100.00
55113;BME280;41006;50.920;3.456;2023-08-24T02:22:03;75585.34;;;-147.36;100.00
55113;BME280;41006;50.920;3.456;2023-08-24T02:22:34;75585.34;;;-147.36;100.00
55113;BME280;41006;50.920;3.456;2023-08-24T02:23:08;75589.41;;;-147.36;100.00
55113;BME280;41006;50.920;3.456;2023-08-24T02:23:41;75587.38;;;-147.36;100.00
55113;BME280;41006;50.920;3.456;2023-08-24T02:24:11;75593.44;;;-147.36;100.00
55113;BME280;41006;50.920;3.456;2023-08-24T02:24:42;75589.41;;;-147.36;100.00
55113;BME280;41006;50.920;3.456;2023-08-24T02:25:15;75587.38;;;-147.36;100.00
55113;BME280;41006;50.920;3.456;2023-08-24T02:25:45;75579.28;;;-147.36;100.00
55113;BME280;41006;50.920;3.456;2023-08-24T02:26:18;75585.34;;;-147.36;100.00
55113;BME280;41006;50.920;3.456;2023-08-24T02:26:51;75587.38;;;-147.36;100.00
55113;BME280;41006;50.920;3.456;2023-08-24T02:27:21;75591.41;;;-147.36;100.00
55113;BME280;41006;50.920;3.456;2023-08-24T02:27:51;75599.50;;;-147.36;100.00
55113;BME280;41006;50.920;3.456;2023-08-24T02:28:25;75591.41;;;-147.36;100.00
55113;BME280;41006;50.920;3.456;2023-08-24T02:28:57;75595.47;;;-147.36;100.00
55113;BME280;41006;50.920;3.456;2023-08-24T02:29:27;75591.41;;;-147.36;100.00
55113;BME280;41006;50.920;3.456;2023-08-24T02:29:58;75595.47;;;-147.36;100.00
55113;BME280;41006;50.920;3.456;2023-08-24T02:30:31;75597.47;;;-147.36;100.00
55113;BME280;41006;50.920;3.456;2023-08-24T02:31:04;75599.50;;;-147.36;100.00
55113;BME280;41006;50.920;3.456;2023-08-24T02:31:35;75599.50;;;-147.36;100.00
55113;BME280;41006;50.920;3.456;2023-08-24T02:32:07;75595.47;;;-147.36;100.00
55113;BME280;41006;50.920;3.456;2023-08-24T02:32:42;75591.41;;;-147.36;100.00
55113;BME280;41006;50.920;3.456;2023-08-24T02:33:15;75597.47;;;-147.36;100.00
55113;BME280;41006;50.920;3.456;2023-08-24T02:33:46;75597.47;;;-147.36;100.00
55113;BME280;41006;50.920;3.456;2023-08-24T02:34:16;75597.47;;;-147.36;100.00
55113;BME280;41006;50.920;3.456;2023-08-24T02:34:49;75589.41;;;-147.36;100.00
55113;BME280;41006;50.920;3.456;2023-08-24T02:35:19;75591.41;;;-147.36;100.00
55113;BME280;41006;50.920;3.456;2023-08-24T02:35:49;75587.38;;;-147.36;100.00
55113;BME280;41006;50.920;3.456;2023-08-24T02:36:24;75575.25;;;-147.36;100.00
55113;BME280;41006;50.920;3.456;2023-08-24T02:36:56;75575.25;;;-147.36;100.00
55113;BME280;41006;50.920;3.456;2023-08-24T02:37:29;75575.25;;;-147.36;100.00
55113;BME280;41006;50.920;3.456;2023-08-24T02:37:59;75583.34;;;-147.36;100.00
55113;BME280;41006;50.920;3.456;2023-08-24T02:38:30;75579.28;;;-147.36;100.00
55113;BME280;41006;50.920;3.456;2023-08-24T02:39:00;75575.25;;;-147.36;100.00
55113;BME280;41006;50.920;3.456;2023-08-24T02:39:34;75571.22;;;-147.36;100.00
55113;BME280;41006;50.920;3.456;2023-08-24T02:40:08;75571.22;;;-147.36;100.00
55113;BME280;41006;50.920;3.456;2023-08-24T02:40:40;75571.22;;;-147.36;100.00
55113;BME280;41006;50.920;3.456;2023-08-24T02:41:10;75579.28;;;-147.36;100.00
55113;BME280;41006;50.920;3.456;2023-08-24T02:41:43;75573.22;;;-147.36;100.00
55113;BME280;41006;50.920;3.456;2023-08-24T02:42:13;75563.13;;;-147.36;100.00
55113;BME280;41006;50.920;3.456;2023-08-24T02:42:44;75563.13;;;-147.36;100.00
55113;BME280;41006;50.920;3.456;2023-08-24T02:43:19;75569.19;;;-147.36;99.66
55113;BME280;41006;50.920;3.456;2023-08-24T02:43:49;75563.13;;;-147.36;99.73
55113;BME280;41006;50.920;3.456;2023-08-24T02:44:19;75561.13;;;-147.36;99.57
55113;BME280;41006;50.920;3.456;2023-08-24T02:44:52;75551.00;;;-147.36;99.82
55113;BME280;41006;50.920;3.456;2023-08-24T02:45:28;75551.00;;;-147.36;99.08
55113;BME280;41006;50.920;3.456;2023-08-24T02:46:01;75567.19;;;-147.36;99.52
55113;BME280;41006;50.920;3.456;2023-08-24T02:46:35;75567.19;;;-147.36;99.29
55113;BME280;41006;50.920;3.456;2023-08-24T02:47:06;75567.19;;;-147.36;99.46
55113;BME280;41006;50.920;3.456;2023-08-24T02:47:36;75567.19;;;-147.36;99.22
55113;BME280;41006;50.920;3.456;2023-08-24T02:48:07;75557.06;;;-147.36;99.23
55113;BME280;41006;50.920;3.456;2023-08-24T02:48:37;75559.09;;;-147.36;99.11
55113;BME280;41006;50.920;3.456;2023-08-24T02:49:09;75561.13;;;-147.36;99.08
55113;BME280;41006;50.920;3.456;2023-08-24T02:49:42;75549.00;;;-147.36;98.83
55113;BME280;41006;50.920;3.456;2023-08-24T02:50:15;75549.00;;;-147.36;98.12
55113;BME280;41006;50.920;3.456;2023-08-24T02:50:46;75546.97;;;-147.36;98.24
55113;BME280;41006;50.920;3.456;2023-08-24T02:51:17;75557.06;;;-147.36;98.00
55113;BME280;41006;50.920;3.456;2023-08-24T02:51:55;75563.13;;;-147.36;98.22
55113;BME280;41006;50.920;3.456;2023-08-24T02:52:28;75559.09;;;-147.36;98.17
55113;BME280;41006;50.920;3.456;2023-08-24T02:52:58;75563.13;;;-147.36;97.95
55113;BME280;41006;50.920;3.456;2023-08-24T02:53:35;75567.19;;;-147.36;97.12
55113;BME280;41006;50.920;3.456;2023-08-24T02:54:05;75559.09;;;-147.36;97.67
55113;BME280;41006;50.920;3.456;2023-08-24T02:54:35;75563.13;;;-147.36;97.62
55113;BME280;41006;50.920;3.456;2023-08-24T02:55:06;75561.13;;;-147.36;97.57
55113;BME280;41006;50.920;3.456;2023-08-24T02:55:39;75549.00;;;-147.36;97.55